Time;durP1;ratioP1;P1;durP2;ratioP2;P2;SDS_P1;SDS_P2;PMS_P1;PMS_P2;Temp;Humidity;BMP_temperature;BMP_pressure;BME280_temperature;BME280_humidity;BME280_pressure;Samples;Min_cycle;Max_cycle;Signal;HPM_P1;HPM_P2
2021/10/16 00:01:22;;;;;;;2.55;1.02;;;;;;;;;;5013170;28;20513;-55
2021/10/16 00:03:48;;;;;;;1.30;0.90;;;;;;;;;;5012574;28;20030;-54
2021/10/16 00:06:14;;;;;;;3.75;1.38;;;;;;;;;;5012184;28;20117;-56
2021/10/16 00:08:40;;;;;;;4.88;0.90;;;;;;;;;;5012299;28;20342;-55
2021/10/16 00:11:07;;;;;;;5.25;1.60;;;;;;;;;;5005874;28;20037;-55
2021/10/16 00:13:33;;;;;;;5.05;1.10;;;;;;;;;;5008509;28;20042;-54
2021/10/16 00:15:59;;;;;;;2.10;0.93;;;;;;;;;;5011751;28;20025;-51
2021/10/16 00:18:24;;;;;;;3.10;1.10;;;;;;;;;;5012052;28;20026;-56
2021/10/16 00:20:51;;;;;;;6.70;1.40;;;;;;;;;;5012266;28;20034;-52
2021/10/16 00:23:17;;;;;;;4.30;1.30;;;;;;;;;;5012778;28;20494;-53
2021/10/16 00:25:43;;;;;;;4.50;1.27;;;;;;;;;;5011702;28;20034;-55
2021/10/16 00:28:09;;;;;;;9.38;1.63;;;;;;;;;;5011759;28;20025;-53
2021/10/16 00:30:35;;;;;;;3.72;0.98;;;;;;;;;;5012216;28;20025;-56
2021/10/16 00:33:01;;;;;;;5.72;1.45;;;;;;;;;;5011928;28;20513;-55
2021/10/16 00:35:27;;;;;;;5.22;1.20;;;;;;;;;;5010047;28;20033;-56
2021/10/16 00:37:53;;;;;;;4.63;1.40;;;;;;;;;;5011455;28;20030;-52
2021/10/16 00:40:19;;;;;;;2.65;1.10;;;;;;;;;;5010875;28;20454;-54
2021/10/16 00:42:52;;;;;;;5.25;1.20;;;;;;;;;;5011528;28;20478;-51
2021/10/16 00:45:19;;;;;;;5.03;1.02;;;;;;;;;;5011838;28;20120;-53
2021/10/16 00:47:45;;;;;;;2.15;1.30;;;;;;;;;;5012099;28;20033;-52
2021/10/16 00:50:11;;;;;;;3.10;1.30;;;;;;;;;;5011685;28;20021;-55
2021/10/16 00:52:38;;;;;;;2.40;1.25;;;;;;;;;;5010439;28;20025;-56
2021/10/16 00:55:06;;;;;;;6.55;1.40;;;;;;;;;;5011863;28;20466;-51
2021/10/16 00:57:32;;;;;;;7.75;1.38;;;;;;;;;;5010974;28;20052;-55
2021/10/16 00:59:58;;;;;;;6.75;1.38;;;;;;;;;;5011770;28;20029;-55
2021/10/16 01:02:24;;;;;;;5.15;1.30;;;;;;;;;;5011669;28;20026;-56
2021/10/16 01:04:50;;;;;;;6.35;1.75;;;;;;;;;;5009675;28;20045;-52
2021/10/16 01:07:17;;;;;;;11.48;1.60;;;;;;;;;;5012207;28;20033;-54
2021/10/16 01:09:43;;;;;;;5.00;0.82;;;;;;;;;;5015301;28;20029;-54
2021/10/16 01:12:09;;;;;;;4.88;1.40;;;;;;;;;;5015430;28;20585;-53
2021/10/16 01:14:39;;;;;;;2.58;1.02;;;;;;;;;;5015513;28;20121;-56
2021/10/16 01:17:05;;;;;;;3.47;1.10;;;;;;;;;;5015417;28;20106;-56
2021/10/16 01:19:33;;;;;;;4.95;1.50;;;;;;;;;;5015416;28;20518;-55
2021/10/16 01:21:59;;;;;;;5.18;1.38;;;;;;;;;;5014767;28;20030;-54
2021/10/16 01:24:25;;;;;;;5.82;1.38;;;;;;;;;;5013903;28;20087;-54
2021/10/16 01:26:51;;;;;;;1.95;0.95;;;;;;;;;;5014711;28;20458;-55
2021/10/16 01:29:22;;;;;;;2.78;0.95;;;;;;;;;;5014746;28;20053;-56
2021/10/16 01:31:49;;;;;;;3.80;0.98;;;;;;;;;;5014814;28;20073;-53
2021/10/16 01:34:15;;;;;;;4.47;1.08;;;;;;;;;;5015213;28;20030;-56
2021/10/16 01:36:42;;;;;;;6.75;1.13;;;;;;;;;;5015206;28;20034;-52
2021/10/16 01:39:08;;;;;;;3.38;1.10;;;;;;;;;;5014483;28;20112;-56
2021/10/16 01:41:34;;;;;;;1.92;0.88;;;;;;;;;;5015138;28;20115;-56
2021/10/16 01:44:00;;;;;;;4.78;1.00;;;;;;;;;;5014647;28;20125;-56
2021/10/16 01:46:26;;;;;;;10.40;1.33;;;;;;;;;;5014967;28;20755;-55
2021/10/16 01:48:52;;;;;;;6.10;1.10;;;;;;;;;;5014738;28;20378;-56
2021/10/16 01:51:19;;;;;;;2.10;1.08;;;;;;;;;;5014804;28;20060;-56
2021/10/16 01:53:45;;;;;;;3.95;0.93;;;;;;;;;;5015272;28;20026;-55
2021/10/16 01:56:11;;;;;;;1.85;0.77;;;;;;;;;;5013089;28;20026;-56
2021/10/16 01:58:37;;;;;;;5.20;1.25;;;;;;;;;;5014554;28;20030;-52
2021/10/16 02:01:03;;;;;;;7.40;1.25;;;;;;;;;;5014076;28;20099;-52
2021/10/16 02:03:29;;;;;;;4.38;0.95;;;;;;;;;;5014135;28;20113;-57
2021/10/16 02:05:55;;;;;;;2.67;1.02;;;;;;;;;;5014337;28;20088;-56
2021/10/16 02:08:21;;;;;;;3.40;1.05;;;;;;;;;;5014619;28;20061;-52
2021/10/16 02:10:47;;;;;;;2.80;0.75;;;;;;;;;;5013625;28;20021;-57
2021/10/16 02:13:13;;;;;;;3.58;0.90;;;;;;;;;;5014677;28;20092;-55
2021/10/16 02:15:39;;;;;;;5.90;0.93;;;;;;;;;;5009354;28;20379;-55
2021/10/16 02:18:05;;;;;;;1.80;0.95;;;;;;;;;;5012812;28;20029;-55
2021/10/16 02:20:31;;;;;;;2.10;1.15;;;;;;;;;;5013829;28;20029;-58
2021/10/16 02:22:57;;;;;;;5.72;0.95;;;;;;;;;;5014855;28;20466;-56
2021/10/16 02:25:23;;;;;;;1.27;0.90;;;;;;;;;;5014191;28;20026;-53
2021/10/16 02:27:49;;;;;;;3.17;1.23;;;;;;;;;;5011466;28;20029;-55
2021/10/16 02:30:15;;;;;;;6.90;1.00;;;;;;;;;;5013877;28;20060;-55
2021/10/16 02:32:41;;;;;;;5.05;1.05;;;;;;;;;;5013369;28;20130;-55
2021/10/16 02:35:07;;;;;;;3.67;1.10;;;;;;;;;;5013900;28;20026;-52
2021/10/16 02:37:33;;;;;;;4.78;1.20;;;;;;;;;;5014142;28;20431;-52
2021/10/16 02:39:59;;;;;;;1.42;0.70;;;;;;;;;;5013897;28;20105;-56
2021/10/16 02:42:25;;;;;;;3.00;0.88;;;;;;;;;;5013951;28;20026;-55
2021/10/16 02:44:51;;;;;;;7.35;1.42;;;;;;;;;;5013794;28;20034;-53
2021/10/16 02:47:17;;;;;;;2.90;1.00;;;;;;;;;;5013534;28;20402;-57
2021/10/16 02:49:43;;;;;;;5.38;1.10;;;;;;;;;;5013202;28;20034;-56
2021/10/16 02:52:09;;;;;;;3.88;0.93;;;;;;;;;;5013104;28;20038;-53
2021/10/16 02:54:35;;;;;;;5.35;1.25;;;;;;;;;;5013503;28;20516;-53
2021/10/16 02:57:01;;;;;;;3.35;1.05;;;;;;;;;;5018904;28;20028;-54
2021/10/16 02:59:27;;;;;;;2.58;1.05;;;;;;;;;;5013710;28;20061;-55
2021/10/16 03:01:53;;;;;;;2.03;1.15;;;;;;;;;;5013454;28;20037;-53
2021/10/16 03:04:19;;;;;;;6.90;1.23;;;;;;;;;;5012160;28;20060;-58
2021/10/16 03:06:45;;;;;;;3.15;1.17;;;;;;;;;;5013364;28;20030;-56
2021/10/16 03:09:16;;;;;;;2.65;1.13;;;;;;;;;;5013565;28;20036;-56
2021/10/16 03:11:42;;;;;;;3.53;1.15;;;;;;;;;;5012109;28;20150;-54
2021/10/16 03:14:08;;;;;;;3.60;1.27;;;;;;;;;;5013113;28;20170;-53
2021/10/16 03:16:34;;;;;;;3.10;1.27;;;;;;;;;;5013377;28;20030;-53
2021/10/16 03:19:00;;;;;;;1.35;1.05;;;;;;;;;;5009919;28;20473;-54
2021/10/16 03:21:26;;;;;;;1.85;0.95;;;;;;;;;;5012163;28;20032;-55
2021/10/16 03:23:52;;;;;;;3.13;0.95;;;;;;;;;;5011454;28;20072;-56
2021/10/16 03:26:18;;;;;;;4.22;0.93;;;;;;;;;;5012987;28;20665;-57
2021/10/16 03:28:44;;;;;;;2.30;0.75;;;;;;;;;;5012842;28;20026;-56
2021/10/16 03:31:10;;;;;;;4.70;1.13;;;;;;;;;;5012654;28;20378;-56
2021/10/16 03:33:36;;;;;;;3.47;1.40;;;;;;;;;;5012664;28;20042;-54
2021/10/16 03:36:04;;;;;;;4.28;1.63;;;;;;;;;;5012963;28;20068;-55
2021/10/16 03:38:30;;;;;;;5.28;1.65;;;;;;;;;;5012717;28;20050;-56
2021/10/16 03:40:56;;;;;;;3.47;0.80;;;;;;;;;;5011675;28;20057;-56
2021/10/16 03:43:22;;;;;;;1.45;0.70;;;;;;;;;;5011811;28;20040;-58
2021/10/16 03:45:48;;;;;;;1.90;1.35;;;;;;;;;;5012723;28;20455;-56
2021/10/16 03:48:13;;;;;;;3.58;1.10;;;;;;;;;;5012437;28;20034;-56
2021/10/16 03:50:39;;;;;;;3.95;1.00;;;;;;;;;;5012019;28;20458;-55
2021/10/16 03:53:05;;;;;;;3.90;1.00;;;;;;;;;;5012620;28;20038;-55
2021/10/16 03:55:31;;;;;;;5.28;0.98;;;;;;;;;;5012126;28;20469;-55
2021/10/16 03:57:57;;;;;;;3.97;1.45;;;;;;;;;;5012324;28;20096;-57
2021/10/16 04:00:23;;;;;;;4.72;1.08;;;;;;;;;;5012092;28;20022;-55
2021/10/16 04:02:52;;;;;;;12.25;2.17;;;;;;;;;;5011725;28;20032;-55
2021/10/16 04:05:18;;;;;;;1.67;0.77;;;;;;;;;;5012185;28;20030;-57
2021/10/16 04:07:44;;;;;;;5.63;1.20;;;;;;;;;;5007910;28;20477;-55
2021/10/16 04:10:11;;;;;;;2.30;1.02;;;;;;;;;;5012083;28;20417;-55
2021/10/16 04:12:37;;;;;;;4.53;1.00;;;;;;;;;;5012181;28;20110;-52
2021/10/16 04:15:04;;;;;;;3.63;1.10;;;;;;;;;;5012556;28;20025;-55
2021/10/16 04:17:30;;;;;;;2.65;1.20;;;;;;;;;;5012371;28;20056;-53
2021/10/16 04:19:56;;;;;;;2.70;1.23;;;;;;;;;;5012179;28;20034;-56
2021/10/16 04:22:22;;;;;;;6.05;1.10;;;;;;;;;;5011363;28;20082;-54
2021/10/16 04:24:48;;;;;;;7.05;1.48;;;;;;;;;;5011824;28;20037;-55
2021/10/16 04:27:16;;;;;;;5.15;1.20;;;;;;;;;;5011762;28;20041;-53
2021/10/16 04:29:42;;;;;;;3.70;1.40;;;;;;;;;;5011736;28;20030;-56
2021/10/16 04:32:08;;;;;;;10.23;1.67;;;;;;;;;;5010678;28;20053;-57
2021/10/16 04:34:34;;;;;;;2.80;0.82;;;;;;;;;;5010876;28;20030;-57
2021/10/16 04:37:00;;;;;;;7.70;1.50;;;;;;;;;;5012226;28;20022;-57
2021/10/16 04:39:28;;;;;;;4.57;1.33;;;;;;;;;;5011127;28;20030;-55
2021/10/16 04:41:54;;;;;;;1.60;1.05;;;;;;;;;;5011122;28;20025;-56
2021/10/16 04:44:20;;;;;;;2.83;1.08;;;;;;;;;;5007789;28;20511;-57
2021/10/16 04:46:46;;;;;;;3.22;0.88;;;;;;;;;;5012259;28;20091;-54
2021/10/16 04:49:12;;;;;;;3.85;1.23;;;;;;;;;;5012101;28;20117;-56
2021/10/16 04:51:38;;;;;;;2.72;1.40;;;;;;;;;;5012078;28;20484;-57
2021/10/16 04:54:04;;;;;;;7.20;1.23;;;;;;;;;;5011705;28;20040;-54
2021/10/16 04:56:30;;;;;;;6.65;1.30;;;;;;;;;;5010910;28;20026;-55
2021/10/16 04:58:56;;;;;;;3.65;1.35;;;;;;;;;;5012326;28;20069;-55
2021/10/16 05:01:22;;;;;;;5.15;1.30;;;;;;;;;;5011436;28;20018;-55
2021/10/16 05:03:48;;;;;;;5.25;1.27;;;;;;;;;;5011643;28;20104;-57
2021/10/16 05:06:14;;;;;;;2.47;1.15;;;;;;;;;;5011328;28;20422;-55
2021/10/16 05:08:41;;;;;;;5.30;1.00;;;;;;;;;;5010375;28;20375;-56
2021/10/16 05:11:07;;;;;;;3.50;1.08;;;;;;;;;;5011668;28;20473;-54
2021/10/16 05:13:33;;;;;;;6.40;1.67;;;;;;;;;;5010464;28;20084;-56
2021/10/16 05:15:59;;;;;;;9.63;1.67;;;;;;;;;;5011098;28;20054;-56
2021/10/16 05:18:26;;;;;;;2.50;1.35;;;;;;;;;;5003641;28;20068;-57
2021/10/16 05:20:52;;;;;;;7.00;1.20;;;;;;;;;;5011657;28;20450;-53
2021/10/16 05:23:18;;;;;;;6.47;1.50;;;;;;;;;;5011737;28;20105;-56
2021/10/16 05:25:45;;;;;;;5.40;1.65;;;;;;;;;;5011685;28;20101;-56
2021/10/16 05:28:11;;;;;;;3.30;1.27;;;;;;;;;;5011041;28;20030;-53
2021/10/16 05:30:38;;;;;;;5.63;1.20;;;;;;;;;;5011221;28;20038;-56
2021/10/16 05:33:04;;;;;;;3.70;1.10;;;;;;;;;;5011537;28;20466;-56
2021/10/16 05:35:30;;;;;;;6.30;1.63;;;;;;;;;;5011333;28;20116;-55
2021/10/16 05:37:56;;;;;;;6.78;1.60;;;;;;;;;;5011690;28;20126;-57
2021/10/16 05:40:22;;;;;;;2.75;1.58;;;;;;;;;;5011031;28;20108;-55
2021/10/16 05:42:48;;;;;;;5.05;1.92;;;;;;;;;;5011104;28;20058;-54
2021/10/16 05:45:14;;;;;;;5.53;1.52;;;;;;;;;;5011882;28;20029;-57
2021/10/16 05:47:43;;;;;;;4.85;1.35;;;;;;;;;;5011512;28;20021;-55
2021/10/16 05:50:10;;;;;;;3.20;1.38;;;;;;;;;;5005106;28;20044;-56
2021/10/16 05:52:36;;;;;;;7.75;1.30;;;;;;;;;;5013158;28;20025;-57
2021/10/16 05:55:06;;;;;;;5.13;1.88;;;;;;;;;;5009699;28;20108;-53
2021/10/16 05:57:33;;;;;;;7.18;1.83;;;;;;;;;;5015010;28;20445;-57
2021/10/16 05:59:59;;;;;;;3.85;1.33;;;;;;;;;;5014906;28;20481;-52
2021/10/16 06:02:25;;;;;;;5.05;1.20;;;;;;;;;;5012078;28;20026;-56
2021/10/16 06:04:51;;;;;;;3.92;1.55;;;;;;;;;;5014483;28;20088;-55
2021/10/16 06:07:16;;;;;;;4.18;1.67;;;;;;;;;;5013709;28;20065;-53
2021/10/16 06:09:42;;;;;;;4.68;1.50;;;;;;;;;;5015037;28;20095;-53
2021/10/16 06:12:08;;;;;;;3.10;1.50;;;;;;;;;;5013096;28;20022;-53
2021/10/16 06:14:35;;;;;;;10.77;1.02;;;;;;;;;;5005666;28;20469;-56
2021/10/16 06:17:01;;;;;;;4.95;1.02;;;;;;;;;;5014269;28;20026;-56
2021/10/16 06:19:26;;;;;;;9.57;1.67;;;;;;;;;;5014769;28;20101;-53
2021/10/16 06:21:52;;;;;;;3.20;1.88;;;;;;;;;;5013864;28;20034;-57
2021/10/16 06:24:18;;;;;;;4.68;1.50;;;;;;;;;;5014345;28;20030;-57
2021/10/16 06:26:44;;;;;;;3.55;1.48;;;;;;;;;;5013000;28;20084;-57
2021/10/16 06:29:10;;;;;;;11.80;2.03;;;;;;;;;;5012142;28;20489;-55
2021/10/16 06:31:36;;;;;;;4.30;1.38;;;;;;;;;;5013323;28;20049;-56
2021/10/16 06:34:03;;;;;;;4.47;1.60;;;;;;;;;;5013834;28;20176;-55
2021/10/16 06:36:29;;;;;;;3.33;1.30;;;;;;;;;;5014405;28;20033;-56
2021/10/16 06:38:55;;;;;;;9.90;1.80;;;;;;;;;;5012361;28;20030;-56
2021/10/16 06:41:21;;;;;;;5.25;2.20;;;;;;;;;;5006747;28;20105;-58
2021/10/16 06:43:47;;;;;;;8.68;1.65;;;;;;;;;;5008809;28;20030;-53
2021/10/16 06:46:13;;;;;;;9.13;1.88;;;;;;;;;;5005923;28;20041;-56
2021/10/16 06:48:39;;;;;;;5.88;1.60;;;;;;;;;;5013343;28;20037;-56
2021/10/16 06:51:05;;;;;;;8.30;1.70;;;;;;;;;;5012885;28;20185;-55
2021/10/16 06:53:31;;;;;;;7.75;1.75;;;;;;;;;;5014049;28;20038;-55
2021/10/16 06:55:57;;;;;;;5.80;1.80;;;;;;;;;;5008997;28;20042;-57
2021/10/16 06:58:23;;;;;;;5.55;1.85;;;;;;;;;;5013806;28;20034;-53
2021/10/16 07:00:49;;;;;;;5.65;2.03;;;;;;;;;;5009062;28;20113;-57
2021/10/16 07:03:15;;;;;;;5.55;1.63;;;;;;;;;;5010372;28;20026;-52
2021/10/16 07:05:41;;;;;;;7.22;1.90;;;;;;;;;;5013476;28;20080;-56
2021/10/16 07:08:07;;;;;;;6.25;2.17;;;;;;;;;;5013949;28;20026;-56
2021/10/16 07:10:33;;;;;;;8.32;2.35;;;;;;;;;;5013555;28;20048;-54
2021/10/16 07:13:02;;;;;;;4.82;1.75;;;;;;;;;;5008528;28;20061;-56
2021/10/16 07:15:28;;;;;;;4.97;1.70;;;;;;;;;;5012701;28;20474;-56
2021/10/16 07:17:54;;;;;;;5.47;1.95;;;;;;;;;;5012389;28;20033;-56
2021/10/16 07:20:20;;;;;;;6.28;1.63;;;;;;;;;;5012224;28;20018;-55
2021/10/16 07:22:46;;;;;;;4.30;1.55;;;;;;;;;;5009779;28;20029;-55
2021/10/16 07:25:12;;;;;;;4.00;1.70;;;;;;;;;;5012025;28;20375;-56
2021/10/16 07:27:38;;;;;;;6.72;1.90;;;;;;;;;;5011829;28;20383;-56
2021/10/16 07:30:05;;;;;;;7.60;2.38;;;;;;;;;;5013610;28;20033;-56
2021/10/16 07:32:31;;;;;;;8.43;2.38;;;;;;;;;;5012933;28;20054;-55
2021/10/16 07:34:57;;;;;;;5.25;1.55;;;;;;;;;;5013003;28;20109;-55
2021/10/16 07:37:23;;;;;;;4.18;1.42;;;;;;;;;;5012626;28;20160;-53
2021/10/16 07:39:49;;;;;;;7.22;2.10;;;;;;;;;;5012988;28;20018;-57
2021/10/16 07:42:15;;;;;;;8.27;1.73;;;;;;;;;;5013230;28;20113;-52
2021/10/16 07:44:41;;;;;;;9.10;1.92;;;;;;;;;;5010579;28;20033;-56
2021/10/16 07:47:07;;;;;;;6.25;1.85;;;;;;;;;;5011612;28;20049;-56
2021/10/16 07:49:33;;;;;;;3.58;1.65;;;;;;;;;;5012964;28;20136;-57
2021/10/16 07:51:59;;;;;;;10.45;2.85;;;;;;;;;;5012249;28;20101;-57
2021/10/16 07:54:25;;;;;;;3.78;1.92;;;;;;;;;;5013213;28;20114;-54
2021/10/16 07:56:51;;;;;;;4.90;2.05;;;;;;;;;;5008886;28;20566;-54
2021/10/16 07:59:17;;;;;;;6.38;1.65;;;;;;;;;;5010323;28;20105;-57
2021/10/16 08:01:43;;;;;;;7.78;1.90;;;;;;;;;;5012831;28;20027;-56
2021/10/16 08:04:09;;;;;;;10.68;2.92;;;;;;;;;;5012835;28;20414;-56
2021/10/16 08:06:35;;;;;;;3.92;1.75;;;;;;;;;;5010040;28;20036;-53
2021/10/16 08:09:01;;;;;;;5.03;1.52;;;;;;;;;;5010359;28;20100;-54
2021/10/16 08:11:27;;;;;;;7.32;2.10;;;;;;;;;;5010564;28;20474;-57
2021/10/16 08:13:53;;;;;;;2.47;1.42;;;;;;;;;;5010014;28;20116;-56
2021/10/16 08:16:19;;;;;;;6.25;2.22;;;;;;;;;;5011393;28;20526;-57
2021/10/16 08:18:45;;;;;;;4.60;1.90;;;;;;;;;;5011904;28;20092;-56
2021/10/16 08:21:11;;;;;;;10.50;2.13;;;;;;;;;;5012126;28;20080;-54
2021/10/16 08:23:37;;;;;;;6.95;1.70;;;;;;;;;;5011312;28;20128;-54
2021/10/16 08:26:03;;;;;;;4.07;1.80;;;;;;;;;;5009968;28;20051;-55
2021/10/16 08:28:31;;;;;;;4.00;1.30;;;;;;;;;;5011323;28;20037;-53
2021/10/16 08:30:58;;;;;;;5.20;1.55;;;;;;;;;;5011365;28;20041;-56
2021/10/16 08:33:24;;;;;;;5.93;1.80;;;;;;;;;;5012085;28;20535;-56
2021/10/16 08:35:52;;;;;;;7.50;1.95;;;;;;;;;;5012301;28;20069;-57
2021/10/16 08:38:18;;;;;;;8.75;1.45;;;;;;;;;;5012441;28;20033;-58
2021/10/16 08:40:45;;;;;;;9.63;2.35;;;;;;;;;;5009998;28;20466;-53
2021/10/16 08:43:11;;;;;;;5.30;2.10;;;;;;;;;;5009609;28;20032;-56
2021/10/16 08:45:37;;;;;;;7.68;1.77;;;;;;;;;;5011760;28;20088;-56
2021/10/16 08:48:07;;;;;;;8.85;1.45;;;;;;;;;;5011574;28;20037;-54
2021/10/16 08:50:33;;;;;;;7.05;1.63;;;;;;;;;;5012413;28;20032;-53
2021/10/16 08:53:00;;;;;;;7.07;1.52;;;;;;;;;;5012038;28;20546;-56
2021/10/16 08:55:26;;;;;;;7.88;1.30;;;;;;;;;;5009759;28;20022;-57
2021/10/16 08:57:52;;;;;;;3.55;1.27;;;;;;;;;;5002878;28;20367;-56
2021/10/16 09:00:38;;;;;;;3.92;1.35;;;;;;;;;;5010632;28;20080;-52
2021/10/16 09:03:17;;;;;;;4.70;1.20;;;;;;;;;;5011748;28;20378;-56
2021/10/16 09:05:57;;;;;;;7.95;1.98;;;;;;;;;;5011374;28;20057;-55
2021/10/16 09:08:31;;;;;;;4.03;1.27;;;;;;;;;;5009800;28;20026;-52
2021/10/16 09:11:13;;;;;;;6.13;1.20;;;;;;;;;;5011679;28;20422;-53
2021/10/16 09:13:44;;;;;;;10.63;1.13;;;;;;;;;;5010258;28;20401;-54
2021/10/16 09:16:21;;;;;;;4.45;1.40;;;;;;;;;;5002973;28;20104;-54
2021/10/16 09:18:51;;;;;;;3.33;1.33;;;;;;;;;;5011151;28;20029;-52
2021/10/16 09:21:17;;;;;;;3.08;1.00;;;;;;;;;;5011167;28;20041;-55
2021/10/16 09:23:43;;;;;;;5.38;1.38;;;;;;;;;;5011791;28;20088;-54
2021/10/16 09:26:09;;;;;;;3.20;1.15;;;;;;;;;;5008567;28;20482;-55
2021/10/16 09:28:36;;;;;;;3.17;0.80;;;;;;;;;;5010376;28;20132;-56
2021/10/16 09:31:10;;;;;;;3.28;1.70;;;;;;;;;;5013832;28;20042;-53
2021/10/16 09:33:46;;;;;;;9.30;1.33;;;;;;;;;;5015091;28;20026;-54
2021/10/16 09:36:30;;;;;;;2.83;0.93;;;;;;;;;;5014252;28;20038;-53
2021/10/16 09:38:57;;;;;;;4.07;1.42;;;;;;;;;;5014939;28;20509;-56
2021/10/16 09:41:27;;;;;;;3.85;0.77;;;;;;;;;;5012079;28;20018;-56
2021/10/16 09:43:53;;;;;;;4.97;0.93;;;;;;;;;;5012599;28;20084;-53
2021/10/16 09:46:20;;;;;;;7.03;1.05;;;;;;;;;;5013239;28;20033;-54
2021/10/16 09:48:47;;;;;;;4.78;1.17;;;;;;;;;;5001224;28;20029;-56
2021/10/16 09:51:14;;;;;;;6.57;1.48;;;;;;;;;;5012495;28;20034;-56
2021/10/16 09:53:42;;;;;;;5.38;1.13;;;;;;;;;;5015080;28;20109;-53
2021/10/16 09:56:09;;;;;;;3.63;1.35;;;;;;;;;;4999711;28;20102;-57
2021/10/16 09:58:36;;;;;;;4.93;1.15;;;;;;;;;;5006950;28;20477;-52
2021/10/16 10:01:02;;;;;;;5.40;1.15;;;;;;;;;;5015170;28;20028;-55
2021/10/16 10:03:31;;;;;;;3.88;1.00;;;;;;;;;;5013024;28;20117;-53
2021/10/16 10:05:57;;;;;;;5.45;0.95;;;;;;;;;;5014048;28;20036;-55
2021/10/16 10:08:23;;;;;;;4.25;1.13;;;;;;;;;;5012340;28;20417;-55
2021/10/16 10:10:49;;;;;;;5.10;1.13;;;;;;;;;;5014214;28;20048;-52
2021/10/16 10:13:16;;;;;;;1.27;0.93;;;;;;;;;;5014053;28;20053;-52
2021/10/16 10:15:42;;;;;;;2.95;1.08;;;;;;;;;;5013153;28;20018;-52
2021/10/16 10:20:54;;;;;;;3.08;0.80;;;;;;;;;;5008666;28;20069;-56
2021/10/16 10:23:25;;;;;;;3.50;0.75;;;;;;;;;;5012629;28;20028;-51
2021/10/16 10:26:10;;;;;;;4.25;0.70;;;;;;;;;;5014941;28;20057;-54
2021/10/16 10:28:51;;;;;;;3.17;0.70;;;;;;;;;;5007570;28;20369;-56
2021/10/16 10:31:36;;;;;;;2.42;0.63;;;;;;;;;;5012687;28;20050;-55
2021/10/16 10:34:03;;;;;;;3.28;0.63;;;;;;;;;;5013141;28;20450;-54
2021/10/16 10:36:29;;;;;;;1.13;0.25;;;;;;;;;;5011468;28;20022;-52
2021/10/16 10:38:55;;;;;;;1.33;0.30;;;;;;;;;;5012138;28;20030;-56
2021/10/16 10:41:24;;;;;;;2.05;0.38;;;;;;;;;;5013443;28;20073;-51
2021/10/16 10:43:52;;;;;;;1.85;0.40;;;;;;;;;;5008293;28;20109;-51
2021/10/16 10:46:22;;;;;;;1.00;0.47;;;;;;;;;;5011268;28;20057;-51
2021/10/16 10:48:49;;;;;;;4.45;0.52;;;;;;;;;;5004052;28;20091;-54
2021/10/16 10:51:32;;;;;;;2.88;0.85;;;;;;;;;;5013608;28;20034;-55
2021/10/16 10:53:58;;;;;;;;;;;;;;;;;;5014539;28;20414;-52
2021/10/16 10:56:36;;;;;;;11.35;1.27;;;;;;;;;;5012716;28;20048;-51
2021/10/16 10:59:04;;;;;;;3.33;0.70;;;;;;;;;;5008681;28;20485;-57
2021/10/16 11:01:45;;;;;;;2.75;1.15;;;;;;;;;;5012332;28;20021;-51
2021/10/16 11:04:11;;;;;;;3.03;1.10;;;;;;;;;;5013305;28;20096;-52
2021/10/16 11:06:55;;;;;;;2.22;0.68;;;;;;;;;;5008735;28;20529;-52
2021/10/16 11:09:21;;;;;;;2.78;0.82;;;;;;;;;;5012623;28;20109;-54
2021/10/16 11:11:51;;;;;;;5.40;1.05;;;;;;;;;;5010759;28;20471;-54
2021/10/16 11:14:17;;;;;;;4.38;0.88;;;;;;;;;;5008843;28;20036;-52
2021/10/16 11:16:53;;;;;;;2.53;0.68;;;;;;;;;;5008737;28;20029;-55
2021/10/16 11:19:19;;;;;;;4.90;0.70;;;;;;;;;;5012986;28;20105;-51
2021/10/16 11:21:50;;;;;;;4.53;1.05;;;;;;;;;;5013585;28;20033;-54
2021/10/16 11:24:16;;;;;;;2.53;0.50;;;;;;;;;;5009645;28;20021;-51
2021/10/16 11:26:51;;;;;;;3.08;0.80;;;;;;;;;;5011628;28;20113;-55
2021/10/16 11:29:27;;;;;;;4.25;1.02;;;;;;;;;;5012985;28;20436;-53
2021/10/16 11:32:10;;;;;;;1.67;0.65;;;;;;;;;;5012066;28;20057;-53
2021/10/16 11:34:36;;;;;;;1.73;0.60;;;;;;;;;;5013101;28;20028;-52
2021/10/16 11:37:02;;;;;;;5.63;0.75;;;;;;;;;;5013247;28;20018;-52
2021/10/16 11:39:29;;;;;;;2.53;0.60;;;;;;;;;;5009793;28;21934;-52
2021/10/16 11:41:55;;;;;;;5.18;0.95;;;;;;;;;;5013071;28;20022;-51
2021/10/16 11:44:21;;;;;;;3.55;0.98;;;;;;;;;;5012951;28;20030;-52
2021/10/16 11:46:57;;;;;;;3.20;1.15;;;;;;;;;;5012179;28;20783;-50
2021/10/16 11:49:24;;;;;;;4.35;0.80;;;;;;;;;;5005865;28;20026;-53
2021/10/16 11:51:50;;;;;;;3.22;0.80;;;;;;;;;;5007795;28;20386;-54
2021/10/16 11:54:19;;;;;;;2.35;0.50;;;;;;;;;;5009457;28;20040;-52
2021/10/16 11:56:53;;;;;;;5.35;1.02;;;;;;;;;;5011025;28;20030;-52
2021/10/16 11:59:20;;;;;;;3.38;1.33;;;;;;;;;;5007796;28;20053;-51
2021/10/16 12:01:46;;;;;;;2.00;0.80;;;;;;;;;;5011726;28;20061;-52
2021/10/16 12:04:12;;;;;;;3.40;0.80;;;;;;;;;;5011815;28;20517;-50
2021/10/16 12:06:38;;;;;;;3.60;0.90;;;;;;;;;;5012626;28;20061;-50
2021/10/16 12:09:04;;;;;;;2.88;0.82;;;;;;;;;;5011621;28;20029;-51
2021/10/16 12:11:32;;;;;;;4.50;0.60;;;;;;;;;;5010620;28;20034;-51
2021/10/16 12:14:02;;;;;;;3.53;1.25;;;;;;;;;;5012554;28;20036;-51
2021/10/16 12:16:35;;;;;;;3.35;0.77;;;;;;;;;;5012537;28;20025;-52
2021/10/16 12:19:03;;;;;;;2.67;1.10;;;;;;;;;;5010821;28;20374;-51
2021/10/16 12:21:33;;;;;;;12.60;2.10;;;;;;;;;;5012659;28;20485;-56
2021/10/16 12:24:00;;;;;;;3.08;0.52;;;;;;;;;;5008977;28;20034;-57
2021/10/16 12:26:32;;;;;;;3.70;0.77;;;;;;;;;;5009677;28;20026;-55
2021/10/16 12:28:58;;;;;;;3.85;1.17;;;;;;;;;;5011477;28;20083;-54
2021/10/16 12:31:25;;;;;;;1.73;0.60;;;;;;;;;;5011647;28;20119;-51
2021/10/16 12:34:05;;;;;;;3.08;0.60;;;;;;;;;;5011838;28;20038;-51
2021/10/16 12:36:35;;;;;;;1.48;0.45;;;;;;;;;;5011785;28;20109;-52
2021/10/16 12:39:02;;;;;;;3.20;0.60;;;;;;;;;;5004433;28;20030;-50
2021/10/16 12:41:33;;;;;;;4.60;1.02;;;;;;;;;;5010471;28;20049;-53
2021/10/16 12:44:19;;;;;;;2.22;0.70;;;;;;;;;;5010849;28;20494;-54
2021/10/16 12:46:46;;;;;;;3.08;0.88;;;;;;;;;;5011636;28;20105;-57
2021/10/16 12:49:25;;;;;;;2.42;0.65;;;;;;;;;;5008035;28;20025;-53
2021/10/16 12:51:51;;;;;;;5.05;1.33;;;;;;;;;;5002824;28;20378;-53
2021/10/16 12:54:30;;;;;;;3.47;0.70;;;;;;;;;;5010607;28;20049;-53
2021/10/16 12:57:03;;;;;;;4.75;1.25;;;;;;;;;;5012084;28;20021;-54
2021/10/16 12:59:29;;;;;;;3.50;1.17;;;;;;;;;;5011560;28;20029;-54
2021/10/16 13:01:55;;;;;;;2.85;0.98;;;;;;;;;;5013778;28;20026;-55
2021/10/16 13:04:21;;;;;;;2.38;0.73;;;;;;;;;;5015255;28;20036;-56
2021/10/16 13:06:47;;;;;;;4.15;1.02;;;;;;;;;;5015478;28;20056;-55
2021/10/16 13:09:13;;;;;;;3.15;0.80;;;;;;;;;;5012384;28;20116;-58
2021/10/16 13:11:39;;;;;;;2.33;0.85;;;;;;;;;;5021379;28;20033;-52
2021/10/16 13:14:05;;;;;;;4.40;1.38;;;;;;;;;;5012486;28;20134;-57
2021/10/16 13:16:31;;;;;;;2.88;0.82;;;;;;;;;;5013330;28;20021;-57
2021/10/16 13:18:57;;;;;;;5.05;0.95;;;;;;;;;;5015251;28;20036;-54
2021/10/16 13:21:23;;;;;;;2.42;0.60;;;;;;;;;;5012741;28;20022;-54
2021/10/16 13:23:49;;;;;;;5.43;0.80;;;;;;;;;;5007255;28;20037;-53
2021/10/16 13:26:15;;;;;;;4.40;0.70;;;;;;;;;;5010139;28;20030;-54
2021/10/16 13:28:41;;;;;;;3.38;0.88;;;;;;;;;;5009777;28;20029;-56
2021/10/16 13:31:07;;;;;;;4.95;1.25;;;;;;;;;;5008824;28;20140;-54
2021/10/16 13:33:33;;;;;;;5.68;1.02;;;;;;;;;;5009827;28;20116;-54
2021/10/16 13:35:59;;;;;;;1.50;0.90;;;;;;;;;;5008222;28;20036;-55
2021/10/16 13:38:25;;;;;;;2.25;0.90;;;;;;;;;;5009797;28;20022;-53
2021/10/16 13:40:52;;;;;;;1.88;0.75;;;;;;;;;;5007001;28;20026;-54
2021/10/16 13:43:18;;;;;;;4.63;0.90;;;;;;;;;;5007153;28;20469;-52
2021/10/16 13:45:45;;;;;;;8.43;0.95;;;;;;;;;;5007778;28;20410;-51
2021/10/16 13:48:11;;;;;;;3.25;0.80;;;;;;;;;;5008977;28;20061;-55
2021/10/16 13:50:37;;;;;;;2.10;1.00;;;;;;;;;;5009262;28;20421;-57
2021/10/16 13:53:03;;;;;;;2.30;0.75;;;;;;;;;;5006790;28;20101;-56
2021/10/16 13:55:29;;;;;;;1.73;0.70;;;;;;;;;;5008694;28;20113;-55
2021/10/16 13:57:55;;;;;;;1.98;0.80;;;;;;;;;;5004095;28;20029;-54
2021/10/16 14:00:22;;;;;;;5.22;1.05;;;;;;;;;;5008710;28;20028;-57
2021/10/16 14:02:48;;;;;;;4.97;1.05;;;;;;;;;;5009477;28;20467;-53
2021/10/16 14:05:14;;;;;;;2.17;0.63;;;;;;;;;;5006261;28;20037;-53
2021/10/16 14:07:40;;;;;;;1.73;0.80;;;;;;;;;;5009300;28;20030;-51
2021/10/16 14:10:06;;;;;;;5.43;0.85;;;;;;;;;;5009664;28;20071;-51
2021/10/16 14:12:32;;;;;;;3.22;1.20;;;;;;;;;;5005027;28;20141;-55
2021/10/16 14:14:58;;;;;;;4.75;0.80;;;;;;;;;;5008248;28;20044;-54
2021/10/16 14:17:24;;;;;;;2.22;0.82;;;;;;;;;;5009872;28;20433;-52
2021/10/16 14:19:50;;;;;;;4.95;1.48;;;;;;;;;;5008102;28;20026;-54
2021/10/16 14:22:16;;;;;;;4.30;0.90;;;;;;;;;;5009087;28;20045;-55
2021/10/16 14:24:42;;;;;;;6.93;0.73;;;;;;;;;;5008981;28;20041;-55
2021/10/16 14:27:08;;;;;;;1.50;1.00;;;;;;;;;;5008334;28;20030;-57
2021/10/16 14:29:34;;;;;;;2.15;1.02;;;;;;;;;;5005809;28;20048;-55
2021/10/16 14:32:00;;;;;;;2.40;0.95;;;;;;;;;;5007870;28;20107;-54
2021/10/16 14:34:28;;;;;;;3.42;1.20;;;;;;;;;;5005994;28;20038;-55
2021/10/16 14:36:54;;;;;;;2.50;0.77;;;;;;;;;;5007208;28;20030;-51
2021/10/16 14:39:20;;;;;;;2.17;0.93;;;;;;;;;;5010493;28;20025;-56
2021/10/16 14:41:46;;;;;;;3.05;1.17;;;;;;;;;;5012042;28;20545;-52
2021/10/16 14:44:12;;;;;;;4.75;0.90;;;;;;;;;;5010038;28;20084;-56
2021/10/16 14:46:38;;;;;;;1.27;0.80;;;;;;;;;;5013116;28;20028;-53